createdAt,value
2023-04-15T00:00:59.899Z,96938.39
2023-04-15T00:03:29.944Z,96935.27
2023-04-15T00:05:58.983Z,96934.12
2023-04-15T00:08:27.772Z,96943.89
2023-04-15T00:10:56.588Z,96949.42
2023-04-15T00:13:24.946Z,96949.88
2023-04-15T00:15:53.514Z,96953.89
2023-04-15T00:18:22.010Z,96957.86
2023-04-15T00:20:50.282Z,96958.89
2023-04-15T00:23:19.212Z,96953.62
2023-04-15T00:25:47.743Z,96948.36
2023-04-15T00:28:15.795Z,96946.91
2023-04-15T00:30:44.622Z,96943.05
2023-04-15T00:33:13.903Z,96932.92
2023-04-15T00:35:42.089Z,96940.00
2023-04-15T00:38:10.557Z,96948.79
2023-04-15T00:40:38.840Z,96950.77
2023-04-15T00:43:07.207Z,96949.81
2023-04-15T00:45:35.318Z,96952.80
2023-04-15T00:48:04.689Z,96953.73
2023-04-15T00:50:33.309Z,96953.82
2023-04-15T00:53:01.472Z,96956.55
2023-04-15T00:55:29.579Z,96959.95
2023-04-15T00:57:58.197Z,96956.64
2023-04-15T01:00:27.011Z,96949.45
2023-04-15T01:02:55.398Z,96947.19
2023-04-15T01:07:52.009Z,96941.63
2023-04-15T01:10:20.216Z,96936.84
2023-04-15T01:12:48.639Z,96932.26
2023-04-15T01:15:16.953Z,96930.36
2023-04-15T01:17:46.612Z,96926.80
2023-04-15T01:20:16.069Z,96924.64
2023-04-15T01:22:45.385Z,96920.52
2023-04-15T01:25:18.013Z,96924.23
2023-04-15T01:27:46.714Z,96930.76
2023-04-15T01:30:15.806Z,96934.05
2023-04-15T01:32:44.126Z,96930.90
2023-04-15T01:35:13.301Z,96934.16
2023-04-15T01:37:42.269Z,96933.23
2023-04-15T01:40:10.862Z,96934.73
2023-04-15T01:42:39.046Z,96933.08
2023-04-15T01:45:08.452Z,96929.99
2023-04-15T01:47:39.598Z,96930.39
2023-04-15T01:50:08.677Z,96928.09
2023-04-15T01:52:36.849Z,96930.86
2023-04-15T01:55:06.378Z,96933.00
2023-04-15T01:57:35.134Z,96937.25
2023-04-15T02:00:03.975Z,96937.81
2023-04-15T02:02:41.594Z,96938.25
2023-04-15T02:05:11.073Z,96941.91
2023-04-15T02:07:39.083Z,96944.46
2023-04-15T02:10:07.574Z,96941.65
2023-04-15T02:12:36.967Z,96936.73
2023-04-15T02:15:06.381Z,96934.78
2023-04-15T02:17:36.015Z,96939.88
2023-04-15T02:20:08.797Z,96941.88
2023-04-15T02:22:37.444Z,96939.77
2023-04-15T02:25:06.398Z,96942.09
2023-04-15T02:27:35.909Z,96941.89
2023-04-15T02:30:04.478Z,96944.08
2023-04-15T02:32:38.229Z,96942.23
2023-04-15T02:35:08.913Z,96944.39
2023-04-15T02:37:43.835Z,96936.65
2023-04-15T02:40:13.540Z,96933.88
2023-04-15T02:42:44.338Z,96933.36
2023-04-15T02:45:14.263Z,96932.17
2023-04-15T02:47:43.519Z,96934.04
2023-04-15T02:50:13.461Z,96934.01
2023-04-15T02:52:44.717Z,96934.44
2023-04-15T02:55:13.395Z,96933.62
2023-04-15T02:57:41.874Z,96930.42
2023-04-15T03:00:12.264Z,96928.45
2023-04-15T03:02:43.228Z,96927.87
2023-04-15T03:05:14.195Z,96926.95
2023-04-15T03:07:47.568Z,96926.64
2023-04-15T03:10:16.012Z,96931.73
2023-04-15T03:12:44.419Z,96927.01
2023-04-15T03:15:16.893Z,96926.04
2023-04-15T03:17:49.717Z,96926.23
2023-04-15T03:20:18.231Z,96930.98
2023-04-15T03:22:46.545Z,96937.77
2023-04-15T03:25:14.991Z,96937.48
2023-04-15T03:27:44.207Z,96944.04
2023-04-15T03:30:13.210Z,96942.28
2023-04-15T03:32:41.762Z,96945.03
2023-04-15T03:35:10.068Z,96946.21
2023-04-15T03:37:38.091Z,96948.72
2023-04-15T03:40:07.374Z,96957.38
2023-04-15T03:42:35.290Z,96959.87
2023-04-15T03:45:04.303Z,96964.63
2023-04-15T03:47:32.782Z,96962.27
2023-04-15T03:50:00.914Z,96969.29
2023-04-15T03:52:29.222Z,96972.26
2023-04-15T03:54:57.928Z,96966.94
2023-04-15T03:57:26.597Z,96963.59
2023-04-15T03:59:54.659Z,96962.76
2023-04-15T04:02:23.641Z,96968.16
2023-04-15T04:04:52.207Z,96969.96
2023-04-15T04:07:20.826Z,96971.23
2023-04-15T04:09:48.996Z,96974.45
2023-04-15T04:12:17.160Z,96976.35
2023-04-15T04:14:45.766Z,96982.07
2023-04-15T04:17:14.074Z,96983.28
2023-04-15T04:19:42.223Z,96982.55
2023-04-15T04:22:10.808Z,96981.10
2023-04-15T04:24:39.093Z,96987.87
2023-04-15T04:27:07.194Z,96994.54
2023-04-15T04:29:35.492Z,96996.27
2023-04-15T04:32:03.528Z,96995.55
2023-04-15T04:34:32.770Z,96996.66
2023-04-15T04:37:01.032Z,96997.48
2023-04-15T04:39:29.099Z,96998.51
2023-04-15T04:41:57.509Z,97000.20
2023-04-15T04:44:25.756Z,96998.95
2023-04-15T04:46:54.138Z,97004.52
2023-04-15T04:49:22.394Z,97009.77
2023-04-15T04:51:51.547Z,97013.55
2023-04-15T04:54:19.925Z,97019.87
2023-04-15T04:56:47.949Z,97011.54
2023-04-15T04:59:16.974Z,97001.34
2023-04-15T05:01:45.314Z,97003.33
2023-04-15T05:04:13.816Z,97001.42
2023-04-15T05:06:41.987Z,96999.45
2023-04-15T05:09:10.048Z,96994.94
2023-04-15T05:11:38.232Z,96997.53
2023-04-15T05:14:06.292Z,96996.52
2023-04-15T05:16:34.531Z,97002.91
2023-04-15T05:19:03.003Z,97005.19
2023-04-15T05:21:31.836Z,97013.27
2023-04-15T05:24:00.184Z,97018.79
2023-04-15T05:26:28.412Z,97020.37
2023-04-15T05:28:56.687Z,97021.88
2023-04-15T05:31:24.920Z,97025.02
2023-04-15T05:33:53.294Z,97027.11
2023-04-15T05:36:21.704Z,97029.86
2023-04-15T05:38:49.968Z,97037.25
2023-04-15T05:41:19.883Z,97041.59
2023-04-15T05:43:48.242Z,97042.19
2023-04-15T05:46:16.472Z,97039.71
2023-04-15T05:48:44.916Z,97040.05
2023-04-15T05:51:13.295Z,97042.83
2023-04-15T05:53:41.891Z,97047.63
2023-04-15T05:56:09.904Z,97051.73
2023-04-15T05:58:37.911Z,97048.54
2023-04-15T06:01:06.649Z,97048.89
2023-04-15T06:03:34.890Z,97054.57
2023-04-15T06:06:03.789Z,97056.89
2023-04-15T06:08:32.038Z,97068.44
2023-04-15T06:11:00.317Z,97072.66
2023-04-15T06:13:28.439Z,97069.30
2023-04-15T06:15:56.818Z,97070.82
2023-04-15T06:18:24.930Z,97072.18
2023-04-15T06:20:53.008Z,97070.71
2023-04-15T06:23:21.319Z,97066.73
2023-04-15T06:25:49.656Z,97063.77
2023-04-15T06:28:17.727Z,97062.54
2023-04-15T06:30:46.002Z,97059.90
2023-04-15T06:33:14.174Z,97060.46
2023-04-15T06:35:42.189Z,97067.23
2023-04-15T06:38:10.649Z,97068.56
2023-04-15T06:40:38.899Z,97072.66
2023-04-15T06:43:08.244Z,97072.02
2023-04-15T06:45:36.495Z,97073.83
2023-04-15T06:48:05.423Z,97072.61
2023-04-15T06:50:33.777Z,97078.48
2023-04-15T06:53:02.340Z,97081.14
2023-04-15T06:55:31.792Z,97079.91
2023-04-15T06:57:59.870Z,97080.52
2023-04-15T07:00:28.894Z,97079.43
2023-04-15T07:02:57.197Z,97080.19
2023-04-15T07:05:25.643Z,97084.88
2023-04-15T07:07:53.864Z,97088.74
2023-04-15T07:10:22.930Z,97093.90
2023-04-15T07:12:52.828Z,97098.12
2023-04-15T07:15:21.040Z,97098.89
2023-04-15T07:17:49.635Z,97099.11
2023-04-15T07:20:18.068Z,97093.30
2023-04-15T07:22:46.093Z,97087.67
2023-04-15T07:25:14.423Z,97090.36
2023-04-15T07:27:42.502Z,97094.71
2023-04-15T07:30:12.659Z,97094.12
2023-04-15T07:32:41.329Z,97097.13
2023-04-15T07:35:10.013Z,97096.19
2023-04-15T07:37:38.208Z,97098.36
2023-04-15T07:40:07.561Z,97092.90
2023-04-15T07:42:37.728Z,97094.52
2023-04-15T07:45:07.784Z,97096.80
2023-04-15T07:47:36.593Z,97091.95
2023-04-15T07:50:05.476Z,97086.94
2023-04-15T07:52:39.188Z,97085.33
2023-04-15T07:55:11.534Z,97086.19
2023-04-15T07:57:39.457Z,97080.42
2023-04-15T08:00:08.337Z,97084.30
2023-04-15T08:02:43.562Z,97082.59
2023-04-15T08:05:11.785Z,97084.80
2023-04-15T08:07:39.989Z,97080.55
2023-04-15T08:10:08.813Z,97078.48
2023-04-15T08:12:37.249Z,97076.66
2023-04-15T08:15:05.880Z,97076.33
2023-04-15T08:17:34.276Z,97077.02
2023-04-15T08:20:02.394Z,97076.84
2023-04-15T08:22:30.767Z,97078.43
2023-04-15T08:24:59.773Z,97079.69
2023-04-15T08:27:28.138Z,97083.44
2023-04-15T08:29:56.134Z,97082.95
2023-04-15T08:32:24.106Z,97081.65
2023-04-15T08:34:52.348Z,97080.62
2023-04-15T08:37:21.037Z,97077.54
2023-04-15T08:39:49.322Z,97075.26
2023-04-15T08:42:19.487Z,97069.42
2023-04-15T08:44:49.037Z,97069.84
2023-04-15T08:47:22.735Z,97071.11
2023-04-15T08:49:54.244Z,97082.77
2023-04-15T08:52:22.876Z,97082.02
2023-04-15T08:54:52.274Z,97075.98
2023-04-15T08:57:20.965Z,97079.51
2023-04-15T08:59:49.678Z,97077.84
2023-04-15T09:02:18.459Z,97076.81
2023-04-15T09:04:46.930Z,97082.20
2023-04-15T09:07:15.417Z,97079.97
2023-04-15T09:09:43.711Z,97079.64
2023-04-15T09:12:12.771Z,97074.46
2023-04-15T09:14:41.659Z,97075.08
2023-04-15T09:17:11.838Z,97068.86
2023-04-15T09:19:39.856Z,97061.87
2023-04-15T09:22:08.004Z,97060.63
2023-04-15T09:24:39.111Z,97061.34
2023-04-15T09:27:07.831Z,97064.73
2023-04-15T09:29:37.385Z,97061.95
2023-04-15T09:32:14.328Z,97062.31
2023-04-15T09:34:43.231Z,97058.77
2023-04-15T09:37:24.541Z,97056.34
2023-04-15T09:39:57.102Z,97054.42
2023-04-15T09:42:26.995Z,97054.61
2023-04-15T09:44:55.482Z,97059.52
2023-04-15T09:47:29.439Z,97060.48
2023-04-15T09:50:01.679Z,97064.44
2023-04-15T09:52:30.654Z,97063.10
2023-04-15T09:54:59.940Z,97065.89
2023-04-15T09:57:36.535Z,97067.55
2023-04-15T10:00:06.845Z,97050.84
2023-04-15T10:02:35.905Z,97053.57
2023-04-15T10:05:04.923Z,97050.70
2023-04-15T10:07:34.060Z,97050.72
2023-04-15T10:10:03.939Z,97058.65
2023-04-15T10:12:33.629Z,97062.86
2023-04-15T10:15:07.891Z,97061.77
2023-04-15T10:17:37.349Z,97056.30
2023-04-15T10:20:06.714Z,97054.40
2023-04-15T10:22:35.800Z,97053.15
2023-04-15T10:25:05.953Z,97051.36
2023-04-15T10:27:34.361Z,97043.98
2023-04-15T10:30:03.972Z,97035.77
2023-04-15T10:32:32.174Z,97029.61
2023-04-15T10:35:01.304Z,97038.95
2023-04-15T10:37:36.785Z,97038.80
2023-04-15T10:40:23.839Z,97030.39
2023-04-15T10:42:52.209Z,97037.77
2023-04-15T10:45:20.372Z,97028.70
2023-04-15T10:48:03.642Z,97030.05
2023-04-15T10:50:33.225Z,97024.16
2023-04-15T10:53:04.942Z,97034.55
2023-04-15T10:55:34.825Z,97022.27
2023-04-15T10:58:03.240Z,97023.52
2023-04-15T11:00:33.138Z,97034.60
2023-04-15T11:03:09.442Z,97030.48
2023-04-15T11:05:43.486Z,97023.05
2023-04-15T11:08:13.352Z,97021.44
2023-04-15T11:10:41.378Z,97010.94
2023-04-15T11:13:09.680Z,97018.44
2023-04-15T11:15:45.068Z,97020.46
2023-04-15T11:18:16.476Z,97015.04
2023-04-15T11:20:48.376Z,97020.00
2023-04-15T11:23:18.625Z,97018.82
2023-04-15T11:25:47.657Z,97016.84
2023-04-15T11:28:16.149Z,97022.81
2023-04-15T11:30:44.765Z,97025.14
2023-04-15T11:33:13.981Z,97027.02
2023-04-15T11:35:42.797Z,97024.02
2023-04-15T11:38:12.599Z,97033.75
2023-04-15T11:40:43.854Z,97032.58
2023-04-15T11:43:15.968Z,97022.61
2023-04-15T11:46:01.413Z,97017.44
2023-04-15T11:48:35.277Z,97011.63
2023-04-15T11:51:07.886Z,97023.98
2023-04-15T11:53:37.292Z,97013.16
2023-04-15T11:56:06.401Z,97013.81
2023-04-15T11:58:37.766Z,97010.02
2023-04-15T12:01:07.576Z,97020.06
2023-04-15T12:03:41.743Z,97012.98
2023-04-15T12:06:12.343Z,97007.54
2023-04-15T12:08:56.651Z,97011.75
2023-04-15T12:11:27.895Z,97010.69
2023-04-15T12:14:03.462Z,97012.36
2023-04-15T12:16:35.827Z,97017.67
2023-04-15T12:19:11.653Z,97020.08
2023-04-15T12:21:42.003Z,97013.27
2023-04-15T12:24:12.510Z,97027.83
2023-04-15T12:26:48.582Z,97019.65
2023-04-15T12:29:17.675Z,97018.12
2023-04-15T12:31:50.795Z,97014.02
2023-04-15T12:34:32.334Z,97009.96
2023-04-15T12:37:02.823Z,97005.05
2023-04-15T12:39:42.884Z,96999.56
2023-04-15T12:42:11.743Z,96997.13
2023-04-15T12:44:40.558Z,96992.95
2023-04-15T12:47:10.176Z,97000.27
2023-04-15T12:49:39.463Z,97006.18
2023-04-15T12:52:07.775Z,97010.13
2023-04-15T12:54:36.544Z,97008.40
2023-04-15T12:57:07.195Z,97014.17
2023-04-15T12:59:36.657Z,97013.05
2023-04-15T13:02:04.899Z,97014.80
2023-04-15T13:04:33.479Z,97015.00
2023-04-15T13:07:02.861Z,97020.26
2023-04-15T13:09:31.226Z,97011.58
2023-04-15T13:11:59.412Z,97012.81
2023-04-15T13:14:27.475Z,97012.27
2023-04-15T13:16:55.756Z,97007.58
2023-04-15T13:19:23.822Z,97008.82
2023-04-15T13:21:52.237Z,97009.23
2023-04-15T13:24:20.395Z,97013.46
2023-04-15T13:26:50.370Z,97027.31
2023-04-15T13:29:18.880Z,97040.48
2023-04-15T13:31:47.076Z,97045.44
2023-04-15T13:34:15.739Z,97052.33
2023-04-15T13:36:43.785Z,97053.48
2023-04-15T13:39:12.287Z,97066.14
2023-04-15T13:41:40.717Z,97050.73
2023-04-15T13:44:08.887Z,97054.56
2023-04-15T13:46:38.084Z,97055.49
2023-04-15T13:49:06.321Z,97055.86
2023-04-15T13:51:36.957Z,97061.69
2023-04-15T13:54:05.685Z,97060.29
2023-04-15T13:56:34.150Z,97066.42
2023-04-15T13:59:03.421Z,97079.61
2023-04-15T14:01:31.550Z,97080.44
2023-04-15T14:03:59.961Z,97087.79
2023-04-15T14:06:29.182Z,97084.98
2023-04-15T14:08:57.246Z,97077.85
2023-04-15T14:11:25.609Z,97082.10
2023-04-15T14:13:53.880Z,97084.77
2023-04-15T14:16:22.237Z,97085.35
2023-04-15T14:18:50.429Z,97087.39
2023-04-15T14:21:18.606Z,97092.67
2023-04-15T14:23:46.727Z,97091.55
2023-04-15T14:26:15.156Z,97100.28
2023-04-15T14:28:45.196Z,97106.14
2023-04-15T14:31:14.256Z,97108.20
2023-04-15T14:33:42.442Z,97101.70
2023-04-15T14:36:10.968Z,97105.13
2023-04-15T14:38:40.230Z,97111.08
2023-04-15T14:41:10.037Z,97118.20
2023-04-15T14:43:39.465Z,97118.69
2023-04-15T14:46:08.683Z,97119.04
2023-04-15T14:48:37.375Z,97119.48
2023-04-15T14:51:05.956Z,97121.45
2023-04-15T14:53:34.323Z,97120.55
2023-04-15T14:56:02.461Z,97119.65
2023-04-15T14:58:30.527Z,97117.74
2023-04-15T15:00:58.905Z,97121.66
2023-04-15T15:03:27.410Z,97124.13
2023-04-15T15:05:55.712Z,97132.41
2023-04-15T15:08:24.555Z,97136.27
2023-04-15T15:10:53.680Z,97137.31
2023-04-15T15:13:21.920Z,97143.77
2023-04-15T15:15:50.453Z,97148.72
2023-04-15T15:18:19.635Z,97153.93
2023-04-15T15:20:48.200Z,97157.17
2023-04-15T15:23:16.877Z,97162.81
2023-04-15T15:25:46.686Z,97167.17
2023-04-15T15:28:14.864Z,97173.15
2023-04-15T15:30:43.085Z,97198.29
2023-04-15T15:33:11.186Z,97221.17
2023-04-15T15:35:39.565Z,97234.73
2023-04-15T15:38:07.959Z,97248.13
2023-04-15T15:40:35.923Z,97261.36
2023-04-15T15:43:04.613Z,97265.34
2023-04-15T15:45:32.800Z,97264.48
2023-04-15T15:48:02.087Z,97262.76
2023-04-15T15:50:30.354Z,97245.89
2023-04-15T15:52:58.844Z,97222.05
2023-04-15T15:55:27.521Z,97195.04
2023-04-15T15:57:55.595Z,97185.48
2023-04-15T16:00:24.531Z,97182.73
2023-04-15T16:03:06.775Z,97186.73
2023-04-15T16:05:36.529Z,97192.42
2023-04-15T16:08:05.307Z,97190.48
2023-04-15T16:10:33.772Z,97193.69
2023-04-15T16:13:02.770Z,97193.51
2023-04-15T16:15:31.038Z,97186.30
2023-04-15T16:17:59.151Z,97183.23
2023-04-15T16:20:28.942Z,97183.35
2023-04-15T16:22:58.820Z,97188.24
2023-04-15T16:25:27.410Z,97190.75
2023-04-15T16:28:05.520Z,97188.34
2023-04-15T16:30:41.502Z,97187.10
2023-04-15T16:33:09.921Z,97189.23
2023-04-15T16:35:38.244Z,97190.84
2023-04-15T16:38:06.613Z,97188.89
2023-04-15T16:40:35.138Z,97189.27
2023-04-15T16:43:03.668Z,97191.37
2023-04-15T16:45:31.824Z,97193.70
2023-04-15T16:48:00.317Z,97198.55
2023-04-15T16:50:28.702Z,97198.63
2023-04-15T16:52:56.779Z,97201.85
2023-04-15T16:55:24.821Z,97203.73
2023-04-15T16:58:02.201Z,97208.55
2023-04-15T17:00:33.074Z,97211.59
2023-04-15T17:03:01.615Z,97211.65
2023-04-15T17:05:33.673Z,97214.11
2023-04-15T17:08:02.012Z,97220.57
2023-04-15T17:10:31.315Z,97222.37
2023-04-15T17:13:00.122Z,97224.92
2023-04-15T17:15:28.380Z,97232.71
2023-04-15T17:17:56.553Z,97237.39
2023-04-15T17:20:26.570Z,97241.37
2023-04-15T17:22:54.828Z,97246.33
2023-04-15T17:25:23.343Z,97256.85
2023-04-15T17:27:51.702Z,97262.48
2023-04-15T17:30:19.920Z,97270.26
2023-04-15T17:32:48.049Z,97278.53
2023-04-15T17:35:16.419Z,97280.84
2023-04-15T17:37:46.416Z,97284.48
2023-04-15T17:40:15.113Z,97288.59
2023-04-15T17:42:43.138Z,97294.24
2023-04-15T17:45:11.863Z,97297.19
2023-04-15T17:47:40.601Z,97302.02
2023-04-15T17:50:09.232Z,97313.07
2023-04-15T17:52:37.281Z,97324.31
2023-04-15T17:55:06.878Z,97330.73
2023-04-15T17:57:35.082Z,97334.35
2023-04-15T18:00:03.557Z,97341.52
2023-04-15T18:02:41.330Z,97345.36
2023-04-15T18:05:10.542Z,97348.49
2023-04-15T18:07:38.738Z,97354.88
2023-04-15T18:10:08.585Z,97362.88
2023-04-15T18:12:36.686Z,97363.78
2023-04-15T18:15:05.905Z,97364.20
2023-04-15T18:17:34.012Z,97369.82
2023-04-15T18:20:02.471Z,97373.09
2023-04-15T18:22:30.851Z,97375.67
2023-04-15T18:25:04.505Z,97380.74
2023-04-15T18:27:34.073Z,97385.55
2023-04-15T18:30:02.244Z,97384.33
2023-04-15T18:32:32.968Z,97386.92
2023-04-15T18:35:01.645Z,97392.74
2023-04-15T18:37:29.915Z,97397.47
2023-04-15T18:39:59.010Z,97401.14
2023-04-15T18:42:27.190Z,97407.50
2023-04-15T18:44:55.561Z,97411.96
2023-04-15T18:47:27.098Z,97417.20
2023-04-15T18:49:55.466Z,97426.45
2023-04-15T18:52:23.567Z,97430.50
2023-04-15T18:54:51.875Z,97435.13
2023-04-15T18:57:23.450Z,97438.45
2023-04-15T19:00:00.655Z,97436.64
2023-04-15T19:02:28.855Z,97436.30
2023-04-15T19:04:57.637Z,97432.36
2023-04-15T19:07:25.925Z,97434.14
2023-04-15T19:09:54.095Z,97435.39
2023-04-15T19:12:22.084Z,97437.52
2023-04-15T19:14:50.606Z,97436.04
2023-04-15T19:17:18.824Z,97436.69
2023-04-15T19:19:46.982Z,97437.83
2023-04-15T19:22:16.798Z,97437.73
2023-04-15T19:24:44.942Z,97437.90
2023-04-15T19:27:13.057Z,97436.61
2023-04-15T19:29:41.437Z,97437.35
2023-04-15T19:32:10.002Z,97437.73
2023-04-15T19:34:38.478Z,97442.20
2023-04-15T19:37:06.647Z,97445.44
2023-04-15T19:39:34.780Z,97446.45
2023-04-15T19:42:03.013Z,97447.02
2023-04-15T19:44:31.474Z,97451.60
2023-04-15T19:46:59.919Z,97459.80
2023-04-15T19:49:28.035Z,97461.50
2023-04-15T19:51:56.437Z,97461.02
2023-04-15T19:54:24.989Z,97462.02
2023-04-15T19:56:52.981Z,97458.85
2023-04-15T19:59:21.235Z,97461.35
2023-04-15T20:01:49.461Z,97460.98
2023-04-15T20:04:17.814Z,97461.27
2023-04-15T20:06:46.370Z,97457.60
2023-04-15T20:09:14.438Z,97456.73
2023-04-15T20:12:05.707Z,97453.70
2023-04-15T20:14:31.088Z,97451.19
2023-04-15T20:16:59.170Z,97451.67
2023-04-15T20:19:27.256Z,97462.08
2023-04-15T20:21:55.295Z,97464.98
2023-04-15T20:24:24.401Z,97464.54
2023-04-15T20:26:52.703Z,97465.39
2023-04-15T20:29:21.150Z,97467.13
2023-04-15T20:31:49.388Z,97468.21
2023-04-15T20:34:17.596Z,97468.36
2023-04-15T20:36:45.672Z,97473.36
2023-04-15T20:39:13.705Z,97477.49
2023-04-15T20:41:41.868Z,97480.88
2023-04-15T20:44:10.363Z,97482.11
2023-04-15T20:46:38.441Z,97483.95
2023-04-15T20:49:06.807Z,97491.52
2023-04-15T20:51:37.728Z,97493.41
2023-04-15T20:54:06.975Z,97499.23
2023-04-15T20:56:35.115Z,97507.65
2023-04-15T20:59:03.475Z,97503.05
2023-04-15T21:01:31.978Z,97501.12
2023-04-15T21:04:00.393Z,97504.19
2023-04-15T21:06:28.666Z,97505.48
2023-04-15T21:08:56.701Z,97510.02
2023-04-15T21:11:43.174Z,97506.69
2023-04-15T21:14:12.813Z,97509.52
2023-04-15T21:16:41.365Z,97504.21
2023-04-15T21:19:10.386Z,97509.92
2023-04-15T21:21:38.973Z,97509.91
2023-04-15T21:24:07.936Z,97515.60
2023-04-15T21:26:36.309Z,97514.34
2023-04-15T21:29:04.770Z,97513.64
2023-04-15T21:31:33.338Z,97517.34
2023-04-15T21:34:01.673Z,97521.13
2023-04-15T21:36:30.361Z,97523.97
2023-04-15T21:38:58.447Z,97524.27
2023-04-15T21:41:27.325Z,97526.00
2023-04-15T21:43:55.402Z,97529.62
2023-04-15T21:46:25.738Z,97533.49
2023-04-15T21:49:01.261Z,97533.19
2023-04-15T21:51:29.433Z,97539.23
2023-04-15T21:53:57.486Z,97539.02
2023-04-15T21:56:26.406Z,97536.48
2023-04-15T21:58:57.207Z,97529.29
2023-04-15T22:01:26.674Z,97524.20
2023-04-15T22:03:55.089Z,97520.92
2023-04-15T22:06:23.313Z,97523.77
2023-04-15T22:08:57.008Z,97531.61
2023-04-15T22:11:30.993Z,97533.48
2023-04-15T22:13:59.706Z,97538.73
2023-04-15T22:16:28.462Z,97538.84
2023-04-15T22:18:56.769Z,97539.73
2023-04-15T22:21:25.003Z,97542.48
2023-04-15T22:23:53.181Z,97545.16
2023-04-15T22:26:41.437Z,97544.82
2023-04-15T22:29:09.953Z,97546.02
2023-04-15T22:31:38.050Z,97547.62
2023-04-15T22:34:06.161Z,97551.02
2023-04-15T22:36:34.332Z,97556.55
2023-04-15T22:39:02.477Z,97562.04
2023-04-15T22:41:30.694Z,97561.77
2023-04-15T22:43:58.751Z,97565.64
2023-04-15T22:46:26.832Z,97578.70
2023-04-15T22:48:55.189Z,97581.05
2023-04-15T22:51:24.631Z,97578.88
2023-04-15T22:53:52.763Z,97578.10
2023-04-15T22:56:21.806Z,97579.36
2023-04-15T22:58:50.335Z,97580.27
2023-04-15T23:01:19.294Z,97577.19
2023-04-15T23:03:56.255Z,97583.66
2023-04-15T23:06:32.183Z,97578.16
2023-04-15T23:09:00.833Z,97575.88
2023-04-15T23:11:29.022Z,97573.20
2023-04-15T23:13:57.099Z,97572.38
2023-04-15T23:16:25.604Z,97572.60
2023-04-15T23:18:54.098Z,97569.35
2023-04-15T23:21:23.649Z,97566.52
2023-04-15T23:23:53.471Z,97566.63
2023-04-15T23:26:21.669Z,97569.62
2023-04-15T23:28:49.702Z,97567.09
2023-04-15T23:31:17.772Z,97566.18
2023-04-15T23:33:46.388Z,97567.36
2023-04-15T23:36:14.658Z,97569.05
2023-04-15T23:38:42.672Z,97572.31
2023-04-15T23:41:12.210Z,97574.69
2023-04-15T23:43:40.414Z,97578.15
2023-04-15T23:46:08.864Z,97583.39
2023-04-15T23:48:37.255Z,97584.21
2023-04-15T23:51:20.594Z,97584.95
2023-04-15T23:53:49.353Z,97583.86
2023-04-15T23:56:17.536Z,97587.19
2023-04-15T23:58:45.927Z,97594.90
